Time;durP1;ratioP1;P1;durP2;ratioP2;P2;SDS_P1;SDS_P2;PMS_P1;PMS_P2;Temp;Humidity;BMP_temperature;BMP_pressure;BME280_temperature;BME280_humidity;BME280_pressure;Samples;Min_cycle;Max_cycle;Signal;HPM_P1;HPM_P2
2021/12/19 00:00:08;;;;;;;7.68;5.70;;;;;;;0.04;66.69;96032.72;5026285;28;20029;-76
2021/12/19 00:02:45;;;;;;;8.48;5.47;;;;;;;0.09;65.85;96024.50;5026488;28;20036;-77
2021/12/19 00:10:28;;;;;;;11.05;6.10;;;;;;;-0.06;66.42;96028.97;5026864;28;20041;-75
2021/12/19 00:12:54;;;;;;;10.77;6.55;;;;;;;-0.10;66.54;96035.38;5008343;28;20541;-74
2021/12/19 00:15:19;;;;;;;9.13;6.00;;;;;;;-0.20;66.85;96035.09;5026578;28;20075;-76
2021/12/19 00:17:45;;;;;;;14.00;6.72;;;;;;;-0.17;67.47;96029.63;5025942;28;20026;-76
2021/12/19 00:20:10;;;;;;;13.70;8.38;;;;;;;-0.16;67.21;96029.53;5026492;28;20508;-75
2021/12/19 00:22:36;;;;;;;13.10;8.10;;;;;;;-0.20;67.34;96028.06;5026083;28;20026;-76
2021/12/19 00:25:01;;;;;;;11.73;7.38;;;;;;;-0.21;67.16;96022.88;5008892;28;20041;-75
2021/12/19 00:27:27;;;;;;;15.88;8.45;;;;;;;-0.29;67.37;96026.00;5025931;28;20021;-76
2021/12/19 00:29:52;;;;;;;13.55;7.53;;;;;;;-0.30;67.82;96014.59;5025984;28;20507;-76
2021/12/19 00:32:18;;;;;;;10.80;6.80;;;;;;;-0.32;67.29;96013.00;5026286;28;20029;-76
2021/12/19 00:34:43;;;;;;;11.90;6.82;;;;;;;-0.36;67.81;96017.59;5026224;28;20424;-76
2021/12/19 00:37:10;;;;;;;11.77;7.20;;;;;;;-0.38;67.86;96011.56;5026158;28;20045;-75
2021/12/19 00:39:35;;;;;;;9.48;6.82;;;;;;;-0.43;68.01;96019.78;5025618;28;20052;-76
2021/12/19 00:42:04;;;;;;;11.70;7.55;;;;;;;-0.56;68.60;96019.66;5025985;28;20100;-78
2021/12/19 00:44:32;;;;;;;9.57;6.32;;;;;;;-0.48;68.04;96027.09;5026276;28;20029;-76
2021/12/19 00:47:05;;;;;;;10.57;7.20;;;;;;;-0.53;69.00;96018.63;5026088;28;20033;-76
2021/12/19 00:49:30;;;;;;;12.00;7.60;;;;;;;-0.55;68.67;96010.81;5026552;28;20099;-76
2021/12/19 00:51:56;;;;;;;12.25;8.43;;;;;;;-0.56;69.59;96013.53;5007988;28;20504;-79
2021/12/19 00:54:21;;;;;;;13.25;8.38;;;;;;;-0.81;70.02;96012.41;5026205;28;20037;-76
2021/12/19 00:56:48;;;;;;;13.98;8.65;;;;;;;-0.78;70.36;96015.72;5026871;28;20022;-76
2021/12/19 00:59:14;;;;;;;12.45;7.55;;;;;;;-0.75;69.67;96014.66;5030165;28;20035;-75
2021/12/19 01:01:39;;;;;;;12.90;8.20;;;;;;;-0.76;70.18;95998.00;5029683;28;20033;-76
2021/12/19 01:04:09;;;;;;;13.18;8.75;;;;;;;-0.72;69.91;95996.03;5029973;28;20108;-76
2021/12/19 01:06:35;;;;;;;14.88;8.77;;;;;;;-0.75;69.95;95996.22;5029910;28;20107;-76
2021/12/19 01:09:01;;;;;;;15.23;9.18;;;;;;;-0.72;69.90;95996.03;5029363;28;20466;-76
2021/12/19 01:11:27;;;;;;;14.30;9.27;;;;;;;-0.75;70.26;95993.59;5029513;28;20022;-75
2021/12/19 01:13:52;;;;;;;14.57;8.88;;;;;;;-1.00;71.02;96001.19;5029426;28;20041;-76
2021/12/19 01:16:19;;;;;;;15.70;9.32;;;;;;;-0.96;70.74;95978.16;5029724;28;20021;-76
2021/12/19 01:18:44;;;;;;;13.48;9.10;;;;;;;-1.00;71.28;95989.81;5029467;28;20036;-76
2021/12/19 01:21:10;;;;;;;12.82;8.40;;;;;;;-0.93;71.29;95985.88;5011760;28;20053;-76
2021/12/19 01:23:37;;;;;;;12.52;8.63;;;;;;;-0.97;71.34;95978.25;5029231;28;20095;-75
2021/12/19 01:26:02;;;;;;;14.88;9.07;;;;;;;-0.94;71.58;95968.38;5029469;28;20036;-76
2021/12/19 01:28:28;;;;;;;16.25;9.57;;;;;;;-0.98;71.59;95972.13;5029416;28;20037;-75
2021/12/19 01:30:53;;;;;;;15.00;8.85;;;;;;;-0.90;71.09;95972.50;5011874;28;20025;-76
2021/12/19 01:33:19;;;;;;;15.20;9.15;;;;;;;-0.91;71.16;95964.69;5029302;28;20025;-76
2021/12/19 01:35:44;;;;;;;12.10;7.82;;;;;;;-0.89;71.32;95966.28;5029199;28;20411;-76
2021/12/19 01:38:09;;;;;;;12.18;8.13;;;;;;;-0.92;71.57;95955.13;5029337;28;20511;-76
2021/12/19 01:40:35;;;;;;;13.90;8.40;;;;;;;-0.81;70.92;95951.81;5029135;28;20029;-74
2021/12/19 01:43:00;;;;;;;11.95;7.72;;;;;;;-0.74;71.03;95958.41;5028966;28;20035;-75
2021/12/19 01:45:30;;;;;;;12.98;7.82;;;;;;;-0.77;70.94;95945.41;5028961;28;20017;-75
2021/12/19 01:47:55;;;;;;;13.77;7.75;;;;;;;-0.65;70.57;95947.31;5029401;28;20032;-76
2021/12/19 01:50:21;;;;;;;12.73;7.55;;;;;;;-0.68;70.16;95949.28;5029168;28;20033;-76
2021/12/19 01:52:47;;;;;;;11.68;7.85;;;;;;;-0.64;70.11;95946.38;5029182;28;20017;-76
2021/12/19 01:55:12;;;;;;;11.43;7.60;;;;;;;-0.61;70.13;95944.50;5010968;28;20512;-76
2021/12/19 01:57:38;;;;;;;15.05;8.50;;;;;;;-0.66;70.69;95945.59;5028474;28;20201;-75
2021/12/19 02:00:05;;;;;;;14.32;8.40;;;;;;;-0.66;71.00;95944.78;5028982;28;20018;-75
2021/12/19 02:02:31;;;;;;;14.63;9.18;;;;;;;-0.65;70.86;95947.31;5028656;28;20039;-75
2021/12/19 02:04:56;;;;;;;13.07;8.00;;;;;;;-0.53;70.85;95929.88;5028964;28;20029;-78
2021/12/19 02:07:21;;;;;;;12.98;8.40;;;;;;;-0.50;70.57;95927.06;5010520;28;20454;-75
2021/12/19 02:09:47;;;;;;;11.98;7.80;;;;;;;-0.50;70.92;95921.78;5028175;28;20053;-75
2021/12/19 02:12:12;;;;;;;11.48;7.53;;;;;;;-0.46;70.54;95924.22;5010577;28;20056;-76
2021/12/19 02:14:38;;;;;;;11.77;7.82;;;;;;;-0.38;70.32;95928.09;5028888;28;20021;-75
2021/12/19 02:17:04;;;;;;;13.98;8.23;;;;;;;-0.35;69.82;95940.22;5028627;28;20029;-76
2021/12/19 02:19:30;;;;;;;12.10;8.05;;;;;;;-0.32;69.95;95926.00;5027848;28;20029;-75
2021/12/19 02:21:56;;;;;;;13.55;8.63;;;;;;;-0.29;69.76;95937.19;5028485;28;20505;-77
2021/12/19 02:24:21;;;;;;;12.55;7.82;;;;;;;-0.22;69.28;95928.88;5009980;28;20475;-76
2021/12/19 02:26:47;;;;;;;14.27;8.63;;;;;;;-0.21;68.95;95917.41;5028649;28;20025;-78
2021/12/19 02:29:12;;;;;;;13.27;8.23;;;;;;;-0.21;69.07;95923.50;5027567;28;20054;-76
2021/12/19 02:31:38;;;;;;;12.75;8.27;;;;;;;-0.19;68.58;95926.91;5028422;28;20055;-78
2021/12/19 02:39:21;;;;;;;9.82;7.38;;;;;;;-0.09;67.93;95921.88;5028274;28;20096;-76
2021/12/19 02:50:03;;;;;;;11.27;7.97;;;;;;;-0.18;68.32;95915.41;5027582;28;20052;-76
2021/12/19 02:52:28;;;;;;;13.02;8.00;;;;;;;-0.17;68.18;95909.19;5027853;28;20093;-76
2021/12/19 02:54:54;;;;;;;11.90;7.80;;;;;;;-0.16;68.45;95908.25;5027547;28;20025;-76
2021/12/19 02:57:19;;;;;;;14.77;7.60;;;;;;;-0.15;68.52;95902.03;5027867;28;20021;-77
2021/12/19 02:59:44;;;;;;;12.35;7.55;;;;;;;-0.11;68.05;95905.31;5027445;28;20021;-76
2021/12/19 03:02:10;;;;;;;12.55;7.82;;;;;;;-0.07;67.30;95903.31;5028058;28;20028;-75
2021/12/19 03:04:35;;;;;;;11.13;7.65;;;;;;;-0.07;68.02;95893.63;5027370;28;20028;-78
2021/12/19 03:07:01;;;;;;;12.50;7.53;;;;;;;0.00;67.28;95894.09;5027319;28;20426;-76
2021/12/19 03:12:45;;;;;;;10.57;7.32;;;;;;;-0.12;68.14;95895.72;5027220;28;20037;-75
2021/12/19 03:18:00;;;;;;;13.73;7.72;;;;;;;-0.22;68.51;95892.81;5027093;28;20110;-76
2021/12/19 03:20:27;;;;;;;12.65;6.95;;;;;;;-0.18;68.65;95896.94;5026527;28;20565;-77
2021/12/19 03:22:52;;;;;;;14.13;7.90;;;;;;;-0.18;69.12;95896.94;5027298;28;20026;-77
2021/12/19 03:25:17;;;;;;;11.07;7.80;;;;;;;-0.17;69.03;95908.34;5026854;28;20036;-75
2021/12/19 03:27:43;;;;;;;18.48;8.95;;;;;;;-0.21;68.69;95897.13;5027019;28;20040;-76
2021/12/19 03:30:09;;;;;;;15.93;9.25;;;;;;;-0.23;69.62;95904.31;5026577;28;20049;-76
2021/12/19 03:32:34;;;;;;;20.60;9.98;;;;;;;-0.20;69.11;95898.84;5027303;28;20041;-76
2021/12/19 03:35:00;;;;;;;23.13;10.52;;;;;;;-0.21;69.76;95897.13;5030218;28;20404;-78
2021/12/19 03:37:25;;;;;;;17.92;10.43;;;;;;;-0.16;69.53;95887.16;5030697;28;20404;-76
2021/12/19 03:40:07;;;;;;;17.88;9.88;;;;;;;-0.17;69.30;95888.09;5030067;28;20018;-75
2021/12/19 03:42:33;;;;;;;22.90;10.15;;;;;;;-0.23;69.08;95888.50;5028999;28;20155;-76
2021/12/19 03:44:59;;;;;;;20.23;10.35;;;;;;;-0.30;69.16;95892.47;5010962;28;20116;-75
2021/12/19 03:47:24;;;;;;;19.90;9.68;;;;;;;-0.49;69.11;95888.38;5026966;28;20059;-76
2021/12/19 03:49:50;;;;;;;17.63;9.63;;;;;;;-0.52;69.62;95883.31;5026978;28;20025;-75
2021/12/19 03:52:15;;;;;;;19.85;9.18;;;;;;;-0.49;69.31;95885.75;5026736;28;20022;-76
2021/12/19 03:54:40;;;;;;;15.38;8.82;;;;;;;-0.50;69.53;95879.63;5026635;28;20494;-76
2021/12/19 03:57:06;;;;;;;18.90;9.55;;;;;;;-0.47;69.13;95877.75;5026951;28;20034;-77
2021/12/19 03:59:31;;;;;;;20.13;9.23;;;;;;;-0.51;68.73;95869.19;5026587;28;20103;-77
2021/12/19 04:01:57;;;;;;;23.92;10.60;;;;;;;-0.58;69.09;95862.63;5026727;28;20449;-76
2021/12/19 04:04:22;;;;;;;20.40;10.05;;;;;;;-0.59;69.47;95860.91;5026474;28;20025;-76
2021/12/19 04:06:48;;;;;;;22.60;10.65;;;;;;;-0.61;69.40;95863.63;5009047;28;20026;-78
2021/12/19 04:09:13;;;;;;;17.73;9.48;;;;;;;-0.72;69.38;95861.69;5026430;28;20032;-76
2021/12/19 04:11:39;;;;;;;20.45;10.52;;;;;;;-0.90;70.45;95858.41;5009159;28;20025;-77
2021/12/19 04:14:04;;;;;;;20.23;10.32;;;;;;;-0.81;70.36;95854.38;5026482;28;20036;-75
2021/12/19 04:16:30;;;;;;;19.77;9.27;;;;;;;-0.94;69.83;95863.03;5026811;28;20025;-75
2021/12/19 04:18:55;;;;;;;17.70;9.85;;;;;;;-0.95;70.03;95856.06;5026282;28;20030;-76
2021/12/19 04:21:20;;;;;;;18.58;9.55;;;;;;;-0.91;69.81;95852.31;5026145;28;20018;-77
2021/12/19 04:23:46;;;;;;;19.13;9.68;;;;;;;-0.88;69.85;95851.25;5026501;28;20025;-78
2021/12/19 04:26:11;;;;;;;15.60;9.43;;;;;;;-0.92;70.02;95855.03;5026349;28;20029;-76
2021/12/19 04:28:37;;;;;;;21.02;9.93;;;;;;;-0.97;69.99;95846.56;5026535;28;20041;-75
2021/12/19 04:31:03;;;;;;;15.52;9.02;;;;;;;-1.00;69.84;95843.19;5025527;28;20033;-76
2021/12/19 04:33:31;;;;;;;16.23;8.55;;;;;;;-0.98;69.92;95843.09;5008796;28;20029;-76
2021/12/19 04:36:02;;;;;;;15.95;9.13;;;;;;;-0.96;69.95;95838.59;5026012;28;20117;-77
2021/12/19 04:39:11;;;;;;;16.38;8.77;;;;;;;-0.92;69.73;95840.06;5025872;28;20502;-77
2021/12/19 04:58:19;;;;;;;18.92;10.10;;;;;;;-1.10;70.13;95826.28;5025802;28;20103;-77
2021/12/19 05:03:29;;;;;;;17.75;9.88;;;;;;;-0.98;69.37;95827.28;5009031;28;20045;-76
2021/12/19 05:06:04;;;;;;;17.80;10.77;;;;;;;-0.85;68.59;95829.19;5025820;28;20037;-75
2021/12/19 05:16:52;;;;;;;22.00;10.40;;;;;;;-0.82;69.27;95832.44;5008702;28;20077;-77
2021/12/19 05:21:43;;;;;;;25.45;10.80;;;;;;;-0.59;67.90;95840.69;5026093;28;20029;-77
2021/12/19 05:24:42;;;;;;;19.85;10.63;;;;;;;-0.57;67.40;95833.53;5025508;28;20041;-76
2021/12/19 05:27:06;;;;;;;17.58;9.27;;;;;;;-0.58;67.80;95836.28;5024944;28;20037;-77
2021/12/19 05:29:32;;;;;;;17.35;9.23;;;;;;;-0.58;67.29;95842.38;5025590;28;20045;-77
2021/12/19 05:31:57;;;;;;;18.70;9.80;;;;;;;-0.55;67.71;95836.91;5025724;28;20029;-76
2021/12/19 05:34:23;;;;;;;15.00;8.77;;;;;;;-0.69;67.39;95837.78;5025324;28;20055;-78
2021/12/19 05:45:14;;;;;;;14.27;8.45;;;;;;;-0.58;67.67;95823.91;5029215;28;20125;-76
2021/12/19 05:47:41;;;;;;;14.25;7.93;;;;;;;-0.63;67.32;95826.84;5012905;28;20033;-76
2021/12/19 05:50:06;;;;;;;17.20;8.63;;;;;;;-0.66;67.59;95820.94;5028972;28;20083;-75
2021/12/19 05:52:32;;;;;;;19.33;8.80;;;;;;;-0.65;67.89;95820.84;5010489;28;20025;-77
2021/12/19 05:54:57;;;;;;;18.63;9.73;;;;;;;-0.59;67.95;95810.84;5011449;28;20013;-77
2021/12/19 05:57:23;;;;;;;16.25;8.85;;;;;;;-0.57;68.15;95814.22;5028449;28;20052;-77
2021/12/19 05:59:50;;;;;;;22.48;10.60;;;;;;;-0.58;67.50;95813.38;5013163;28;20052;-78
2021/12/19 06:02:17;;;;;;;21.52;10.30;;;;;;;-0.60;67.83;95807.38;5017010;28;20110;-77
2021/12/19 06:04:42;;;;;;;24.98;10.43;;;;;;;-0.64;68.17;95806.72;5011363;28;20432;-76
2021/12/19 06:07:09;;;;;;;21.77;9.98;;;;;;;-0.58;68.06;95794.09;5028778;28;20492;-77
2021/12/19 06:09:34;;;;;;;25.30;10.88;;;;;;;-0.54;67.81;95806.13;5010784;28;20409;-77
2021/12/19 06:12:00;;;;;;;25.00;11.70;;;;;;;-0.49;67.14;95798.78;5028799;28;20033;-75
2021/12/19 06:14:31;;;;;;;24.85;10.93;;;;;;;-0.48;67.68;95803.09;4993876;28;20037;-76
2021/12/19 06:16:57;;;;;;;20.25;11.18;;;;;;;-0.45;67.49;95797.63;5029061;28;20034;-77
2021/12/19 06:19:22;;;;;;;22.60;10.63;;;;;;;-0.43;67.50;95790.47;5027868;28;20038;-77
2021/12/19 06:21:47;;;;;;;21.80;12.00;;;;;;;-0.44;67.71;95787.94;4994635;28;20408;-77
2021/12/19 06:24:13;;;;;;;19.77;10.15;;;;;;;-0.43;68.01;95789.63;5028358;28;20033;-78
2021/12/19 06:26:38;;;;;;;16.95;9.15;;;;;;;-0.38;67.31;95783.13;5028132;28;20026;-76
2021/12/19 06:29:04;;;;;;;23.90;10.10;;;;;;;-0.39;67.32;95772.66;5028215;28;20100;-76
2021/12/19 06:31:29;;;;;;;21.95;10.55;;;;;;;-0.38;67.39;95769.06;5027492;28;20022;-75
2021/12/19 06:33:55;;;;;;;30.13;12.90;;;;;;;-0.35;67.19;95770.66;5028748;28;20033;-78
2021/12/19 06:36:20;;;;;;;28.95;11.93;;;;;;;-0.30;67.29;95772.06;5027904;28;20102;-77
2021/12/19 06:38:45;;;;;;;28.83;13.05;;;;;;;-0.30;68.06;95771.19;5028534;28;20037;-76
2021/12/19 06:41:11;;;;;;;31.35;13.65;;;;;;;-0.35;68.10;95774.16;5027869;28;20032;-76
2021/12/19 06:43:36;;;;;;;33.80;13.77;;;;;;;-0.19;67.54;95776.63;5028079;28;20682;-78
2021/12/19 06:46:02;;;;;;;28.48;12.68;;;;;;;-0.06;67.18;95774.00;5030941;28;20033;-76
2021/12/19 06:48:27;;;;;;;30.05;12.75;;;;;;;-0.17;67.26;95771.25;5027026;28;20052;-75
2021/12/19 06:50:53;;;;;;;32.35;12.90;;;;;;;0.01;67.41;95771.81;5028057;28;20032;-75
2021/12/19 06:53:18;;;;;;;32.88;13.40;;;;;;;0.15;66.19;95773.50;4993162;28;20021;-77
2021/12/19 06:55:44;;;;;;;22.67;9.75;;;;;;;0.38;66.22;95768.47;5027559;28;20473;-77
2021/12/19 06:58:09;;;;;;;22.25;11.00;;;;;;;0.51;65.55;95760.53;5027371;28;20384;-77
2021/12/19 07:00:35;;;;;;;16.70;9.00;;;;;;;0.71;66.20;95761.78;5028039;28;20084;-77
2021/12/19 07:03:00;;;;;;;17.98;8.88;;;;;;;0.84;64.72;95766.19;5028554;28;20484;-76
2021/12/19 07:05:26;;;;;;;14.60;7.95;;;;;;;0.99;64.62;95774.84;5027047;28;20040;-77
2021/12/19 07:07:51;;;;;;;14.65;7.97;;;;;;;1.19;63.86;95767.28;5027546;28;20033;-76
2021/12/19 07:10:16;;;;;;;14.73;7.95;;;;;;;1.31;64.06;95769.03;5027136;28;20483;-77
2021/12/19 07:12:42;;;;;;;12.55;7.05;;;;;;;1.39;63.07;95770.28;5009692;28;20113;-77
2021/12/19 07:15:08;;;;;;;13.20;7.68;;;;;;;1.48;63.13;95775.72;5027260;28;20017;-77
2021/12/19 07:17:33;;;;;;;13.50;8.02;;;;;;;1.44;63.16;95763.69;5027516;28;20026;-75
2021/12/19 07:19:58;;;;;;;16.35;7.88;;;;;;;1.29;64.05;95768.28;5027010;28;20033;-79
2021/12/19 07:22:24;;;;;;;13.73;7.82;;;;;;;1.26;63.99;95757.94;5009575;28;20091;-79
2021/12/19 07:24:51;;;;;;;14.30;8.18;;;;;;;1.33;64.17;95756.56;5027005;28;20053;-77
2021/12/19 07:27:16;;;;;;;13.80;7.97;;;;;;;1.28;64.18;95757.84;5026853;28;20775;-77
2021/12/19 07:29:41;;;;;;;14.05;8.45;;;;;;;1.26;64.71;95747.38;5027000;28;20523;-76
2021/12/19 07:32:07;;;;;;;17.80;10.10;;;;;;;1.16;64.31;95749.00;5026498;28;20334;-78
2021/12/19 07:34:35;;;;;;;12.68;7.85;;;;;;;1.10;64.30;95745.00;5009392;28;20032;-78
2021/12/19 07:37:01;;;;;;;14.95;8.27;;;;;;;0.90;65.44;95751.72;5026518;28;20044;-78
2021/12/19 07:39:40;;;;;;;12.82;8.68;;;;;;;0.89;65.37;95748.22;5009696;28;20033;-76
2021/12/19 07:42:07;;;;;;;16.63;8.63;;;;;;;0.99;65.70;95748.41;5026796;28;20036;-76
2021/12/19 07:44:33;;;;;;;15.23;8.38;;;;;;;1.06;64.50;95747.03;5008934;28;20112;-77
2021/12/19 07:46:59;;;;;;;11.15;7.72;;;;;;;1.03;65.71;95744.59;5009290;28;20107;-77
2021/12/19 07:49:24;;;;;;;13.82;8.20;;;;;;;0.92;65.15;95747.19;5026563;28;20033;-76
2021/12/19 07:51:50;;;;;;;14.98;8.30;;;;;;;0.96;65.14;95754.78;5026678;28;20041;-76
2021/12/19 07:54:15;;;;;;;12.95;7.78;;;;;;;0.85;65.16;95741.50;5026053;28;20022;-77
2021/12/19 07:56:40;;;;;;;11.90;7.53;;;;;;;0.84;64.94;95739.78;5009083;28;20386;-76
2021/12/19 07:59:06;;;;;;;17.75;7.53;;;;;;;0.79;65.50;95734.81;5026389;28;20479;-77
2021/12/19 08:01:32;;;;;;;14.48;7.97;;;;;;;0.85;64.73;95737.03;5026388;28;20030;-78
2021/12/19 08:03:57;;;;;;;12.77;7.22;;;;;;;0.86;66.01;95732.59;5026725;28;20026;-75
2021/12/19 08:06:23;;;;;;;13.95;7.93;;;;;;;0.80;65.35;95731.25;5007675;28;20022;-76
2021/12/19 08:08:52;;;;;;;12.43;8.23;;;;;;;0.82;65.89;95716.13;5026272;28;20033;-76
2021/12/19 08:14:02;;;;;;;14.38;7.50;;;;;;;0.81;66.23;95709.16;5026979;28;20040;-78
2021/12/19 08:16:28;;;;;;;15.73;7.63;;;;;;;0.88;66.00;95699.00;5026117;28;20029;-78
2021/12/19 08:18:53;;;;;;;15.95;8.80;;;;;;;0.81;65.74;95688.03;5025886;28;20040;-77
2021/12/19 08:21:19;;;;;;;15.75;8.50;;;;;;;0.85;65.78;95689.50;5026316;28;20033;-77
2021/12/19 08:23:45;;;;;;;13.05;8.10;;;;;;;0.82;66.39;95691.53;5008213;28;20077;-77
2021/12/19 08:26:10;;;;;;;13.63;8.60;;;;;;;0.78;66.12;95682.97;5008834;28;20492;-79
2021/12/19 08:28:35;;;;;;;13.90;8.13;;;;;;;0.85;65.75;95681.56;5004769;28;20045;-76
2021/12/19 08:31:01;;;;;;;16.63;8.73;;;;;;;0.79;66.07;95682.00;5006772;28;20095;-76
2021/12/19 08:33:26;;;;;;;14.45;7.97;;;;;;;0.69;66.20;95679.22;5005872;28;20076;-76
2021/12/19 08:35:52;;;;;;;19.48;9.95;;;;;;;0.71;66.45;95687.03;5006406;28;20030;-77
2021/12/19 08:38:17;;;;;;;11.75;7.55;;;;;;;0.77;66.19;95681.31;5006151;28;20026;-77
2021/12/19 08:40:44;;;;;;;12.93;8.25;;;;;;;0.74;66.44;95686.81;5006258;28;20051;-76
2021/12/19 08:43:09;;;;;;;13.18;7.65;;;;;;;0.90;65.67;95685.69;5006567;28;20038;-76
2021/12/19 08:45:35;;;;;;;11.65;7.43;;;;;;;0.90;65.32;95690.97;5006257;28;20092;-76
2021/12/19 08:48:00;;;;;;;15.77;7.97;;;;;;;0.90;65.00;95690.97;5006150;28;20065;-78
2021/12/19 08:50:26;;;;;;;13.75;7.90;;;;;;;0.91;65.28;95693.50;5004662;28;20508;-77
2021/12/19 08:52:52;;;;;;;12.77;7.57;;;;;;;0.90;65.01;95689.19;5006629;28;20026;-78
2021/12/19 08:55:18;;;;;;;11.70;7.65;;;;;;;0.89;65.59;95690.13;5005882;28;20041;-78
2021/12/19 08:57:43;;;;;;;12.45;7.68;;;;;;;0.93;65.41;95693.41;5006461;28;20034;-75
2021/12/19 09:00:13;;;;;;;13.48;7.85;;;;;;;1.01;65.29;95691.03;5006326;28;20433;-77
2021/12/19 09:02:41;;;;;;;15.48;8.10;;;;;;;0.95;65.31;95694.97;5006668;28;20036;-76
2021/12/19 09:05:07;;;;;;;13.75;7.65;;;;;;;1.00;65.17;95688.50;5006029;28;20053;-75
2021/12/19 09:07:32;;;;;;;14.40;7.85;;;;;;;1.04;65.56;95682.03;5005717;28;20397;-76
2021/12/19 09:09:57;;;;;;;11.77;7.47;;;;;;;0.98;65.88;95684.16;5006204;28;20412;-76
2021/12/19 09:12:23;;;;;;;12.68;8.05;;;;;;;0.90;65.95;95683.91;5005887;28;20373;-78
2021/12/19 09:14:48;;;;;;;16.42;8.52;;;;;;;1.01;65.78;95677.84;5006491;28;20567;-76
2021/12/19 09:17:14;;;;;;;13.23;8.27;;;;;;;0.95;65.46;95678.28;5006310;28;20452;-78
2021/12/19 09:19:39;;;;;;;17.30;9.45;;;;;;;1.01;66.14;95675.19;5008259;28;20554;-75
2021/12/19 09:22:05;;;;;;;16.27;8.25;;;;;;;1.07;65.94;95661.53;5008384;28;20030;-76
2021/12/19 09:24:30;;;;;;;13.52;8.52;;;;;;;0.92;66.21;95660.84;5009627;28;20030;-76
2021/12/19 09:26:56;;;;;;;13.82;7.82;;;;;;;1.07;65.45;95653.63;5008507;28;20029;-77
2021/12/19 09:29:21;;;;;;;17.27;8.73;;;;;;;1.14;65.88;95645.22;5019198;28;20045;-76
2021/12/19 09:31:46;;;;;;;12.90;8.07;;;;;;;1.12;65.41;95650.63;5029641;28;20026;-77
2021/12/19 09:34:12;;;;;;;14.80;8.85;;;;;;;1.21;65.42;95643.84;5028857;28;20040;-76
2021/12/19 09:36:37;;;;;;;16.55;8.63;;;;;;;1.17;66.06;95634.44;5029503;28;20013;-75
2021/12/19 09:39:03;;;;;;;14.98;8.77;;;;;;;1.14;66.78;95632.03;5029001;28;20044;-75
2021/12/19 09:41:31;;;;;;;20.67;9.32;;;;;;;1.23;65.73;95632.19;5012456;28;20076;-76
2021/12/19 09:43:58;;;;;;;17.92;8.65;;;;;;;1.28;65.70;95642.41;5029213;28;20029;-75
2021/12/19 09:46:28;;;;;;;16.77;8.45;;;;;;;1.25;65.38;95625.94;5028489;28;20065;-76
2021/12/19 09:48:53;;;;;;;15.32;9.10;;;;;;;1.24;65.33;95627.75;4996474;28;20064;-77
2021/12/19 09:51:19;;;;;;;14.88;9.10;;;;;;;1.15;65.94;95615.19;5028272;28;20021;-76
2021/12/19 09:53:44;;;;;;;15.10;8.98;;;;;;;1.23;66.19;95618.13;5029142;28;20112;-76
2021/12/19 09:56:10;;;;;;;17.98;9.38;;;;;;;1.18;66.22;95604.41;5028518;28;20041;-75
2021/12/19 09:58:36;;;;;;;19.10;10.13;;;;;;;1.19;66.68;95598.19;5011037;28;20030;-76
2021/12/19 10:01:04;;;;;;;16.30;9.40;;;;;;;1.18;66.99;95594.69;5028826;28;20036;-76
2021/12/19 10:03:30;;;;;;;16.50;9.60;;;;;;;1.29;66.00;95593.88;5010556;28;20480;-75
2021/12/19 10:06:31;;;;;;;15.23;8.93;;;;;;;1.25;66.25;95587.16;5028866;28;20049;-77
2021/12/19 10:09:15;;;;;;;16.63;9.57;;;;;;;1.27;67.12;95579.09;4928961;29;20068;-78
2021/12/19 10:14:26;;;;;;;16.50;9.60;;;;;;;1.41;66.58;95570.13;5028498;28;20116;-76
2021/12/19 10:16:52;;;;;;;21.08;10.95;;;;;;;1.41;67.29;95570.13;5010453;28;20389;-75
2021/12/19 10:19:17;;;;;;;16.88;9.88;;;;;;;1.43;66.81;95561.13;5010891;28;20506;-75
2021/12/19 10:21:43;;;;;;;16.17;10.23;;;;;;;1.40;67.20;95556.09;5010384;28;20538;-77
2021/12/19 10:24:10;;;;;;;22.52;11.68;;;;;;;1.35;67.13;95553.75;5028741;28;20022;-76
2021/12/19 10:26:43;;;;;;;19.60;11.02;;;;;;;1.44;67.71;95561.97;5010612;28;20531;-76
2021/12/19 10:29:10;;;;;;;18.33;10.48;;;;;;;1.42;67.17;95548.84;5026585;28;20535;-76
2021/12/19 10:31:35;;;;;;;19.58;11.02;;;;;;;1.44;67.32;95549.59;5027963;28;20041;-76
2021/12/19 10:34:22;;;;;;;20.23;10.95;;;;;;;1.35;67.56;95540.53;5027982;28;20029;-76
2021/12/19 10:36:48;;;;;;;15.80;9.23;;;;;;;1.42;67.46;95537.47;5011287;28;20102;-76
2021/12/19 10:39:16;;;;;;;16.73;10.02;;;;;;;1.48;67.14;95521.13;5033172;28;20029;-76
2021/12/19 10:41:43;;;;;;;15.80;10.55;;;;;;;1.51;67.72;95525.31;5035539;28;20044;-75
2021/12/19 10:45:29;;;;;;;15.82;9.55;;;;;;;1.46;67.26;95529.19;5034674;28;20064;-74
2021/12/19 10:47:20;;;;;;;16.65;9.85;;;;;;;1.41;67.79;95522.53;5027545;28;20034;-76
2021/12/19 10:49:46;;;;;;;18.25;10.10;;;;;;;1.43;67.35;95516.19;5028122;28;20513;-77
2021/12/19 10:52:11;;;;;;;20.38;11.07;;;;;;;1.38;67.63;95517.50;5009708;28;20497;-75
2021/12/19 10:54:37;;;;;;;16.95;10.30;;;;;;;1.42;68.19;95511.03;5009910;28;20029;-76
2021/12/19 10:57:11;;;;;;;17.15;9.55;;;;;;;1.52;66.93;95504.06;4993624;28;20025;-77
2021/12/19 10:59:37;;;;;;;18.48;10.48;;;;;;;1.45;67.45;95498.41;5009398;28;20040;-77
2021/12/19 11:02:02;;;;;;;16.98;9.27;;;;;;;1.40;67.95;95492.66;5009989;28;20100;-76
2021/12/19 11:04:29;;;;;;;14.00;8.73;;;;;;;1.39;67.37;95490.13;5009032;28;20048;-77
2021/12/19 11:06:57;;;;;;;14.98;8.45;;;;;;;1.35;67.45;95492.16;5027993;28;20029;-76
2021/12/19 11:09:29;;;;;;;13.77;8.50;;;;;;;1.32;67.75;95481.81;5027180;28;20036;-77
2021/12/19 11:12:05;;;;;;;15.63;9.25;;;;;;;1.32;68.26;95481.81;5027675;28;20029;-75
2021/12/19 11:14:37;;;;;;;18.00;9.05;;;;;;;1.19;69.28;95476.63;5027504;28;20029;-74
2021/12/19 11:17:06;;;;;;;14.98;9.35;;;;;;;1.28;69.16;95477.72;5027780;28;20030;-76
2021/12/19 11:19:32;;;;;;;13.68;8.50;;;;;;;1.32;68.55;95476.53;5029061;28;20064;-75
2021/12/19 11:21:57;;;;;;;16.42;9.98;;;;;;;1.33;68.22;95468.50;5028096;28;20025;-75
2021/12/19 11:24:23;;;;;;;17.10;9.50;;;;;;;1.32;68.23;95474.72;5011851;28;20028;-75
2021/12/19 11:26:53;;;;;;;15.95;9.95;;;;;;;1.40;67.96;95474.16;5028884;28;20032;-77
2021/12/19 11:29:19;;;;;;;16.55;9.13;;;;;;;1.44;68.16;95461.50;5027459;28;20104;-76
2021/12/19 11:31:51;;;;;;;16.85;10.10;;;;;;;1.27;68.48;95466.31;5009790;28;20030;-75
2021/12/19 11:34:41;;;;;;;14.30;8.70;;;;;;;1.41;68.05;95457.31;5009949;28;20053;-76
2021/12/19 11:37:06;;;;;;;13.57;8.25;;;;;;;1.47;67.76;95458.63;5009916;28;20056;-74
2021/12/19 11:39:37;;;;;;;14.48;8.57;;;;;;;1.43;67.66;95450.13;5008999;28;20484;-78
2021/12/19 11:42:05;;;;;;;18.58;8.93;;;;;;;1.40;67.05;95460.09;4977018;28;20103;-77
2021/12/19 11:44:32;;;;;;;15.75;8.88;;;;;;;1.40;67.33;95450.34;4993256;28;20034;-76
2021/12/19 11:46:59;;;;;;;14.40;8.68;;;;;;;1.36;68.08;95435.69;5026462;28;20033;-76
2021/12/19 11:49:27;;;;;;;15.85;8.60;;;;;;;1.35;67.54;95428.72;5009836;28;20029;-76
2021/12/19 11:52:25;;;;;;;16.92;8.93;;;;;;;1.35;67.92;95426.91;5008889;28;20458;-75
2021/12/19 11:55:19;;;;;;;19.33;10.25;;;;;;;1.29;69.07;95419.47;5027334;28;20060;-79
2021/12/19 11:58:07;;;;;;;16.77;9.18;;;;;;;1.39;68.64;95426.69;5026874;28;20036;-76
2021/12/19 12:00:40;;;;;;;16.42;9.68;;;;;;;1.36;68.93;95417.19;5026266;28;20044;-75
2021/12/19 12:03:39;;;;;;;20.75;10.30;;;;;;;1.43;68.31;95404.34;5027329;28;20103;-76
2021/12/19 12:06:14;;;;;;;18.05;9.20;;;;;;;1.51;68.33;95409.84;4986787;28;20099;-77
2021/12/19 12:08:39;;;;;;;17.38;10.35;;;;;;;1.41;68.71;95404.47;5026530;28;20022;-76
2021/12/19 12:11:05;;;;;;;19.52;11.25;;;;;;;1.48;67.93;95397.72;4992336;28;20111;-76
2021/12/19 12:13:35;;;;;;;19.83;11.82;;;;;;;1.57;68.17;95388.22;5026143;28;20099;-78
2021/12/19 12:16:13;;;;;;;20.02;11.30;;;;;;;1.67;67.61;95390.97;5026566;28;20407;-75
2021/12/19 12:18:40;;;;;;;18.33;10.90;;;;;;;1.66;67.18;95402.50;5026105;28;20138;-76
2021/12/19 12:21:17;;;;;;;17.60;9.88;;;;;;;1.62;67.08;95387.84;5026506;28;20033;-77
2021/12/19 12:23:52;;;;;;;17.75;9.38;;;;;;;1.70;66.76;95381.94;5026680;28;20040;-76
2021/12/19 12:26:26;;;;;;;18.75;10.18;;;;;;;1.41;68.03;95377.19;5026015;28;20053;-75
2021/12/19 12:28:52;;;;;;;14.73;9.07;;;;;;;1.41;67.90;95370.09;5008525;28;20042;-77
2021/12/19 12:31:17;;;;;;;17.20;9.95;;;;;;;1.52;67.39;95365.75;5025976;28;20056;-76
2021/12/19 12:33:43;;;;;;;16.85;9.73;;;;;;;1.59;67.11;95370.44;5009210;28;20056;-76
2021/12/19 12:36:08;;;;;;;18.55;9.55;;;;;;;1.64;66.76;95356.00;5025940;28;20033;-76